sensor_id;sensor_type;location;lat;lon;timestamp;noise_LAeq;noise_LA_min;noise_LA_max;noise_LA01;noise_LA95
69670;Laerm;66535;52.370;4.832;2023-07-13T00:00:04;42.49;39.88;46.15;;
69670;Laerm;66535;52.370;4.832;2023-07-13T00:00:36;41.43;38.64;49.31;;
69670;Laerm;66535;52.370;4.832;2023-07-13T00:01:09;41.92;38.31;48.92;;
69670;Laerm;66535;52.370;4.832;2023-07-13T00:01:40;44.19;41.29;50.99;;
69670;Laerm;66535;52.370;4.832;2023-07-13T00:02:12;44.30;41.04;48.60;;
69670;Laerm;66535;52.370;4.832;2023-07-13T00:02:43;42.15;39.57;47.48;;
69670;Laerm;66535;52.370;4.832;2023-07-13T00:03:16;42.05;39.40;46.04;;
69670;Laerm;66535;52.370;4.832;2023-07-13T00:03:48;42.82;38.51;50.36;;
69670;Laerm;66535;52.370;4.832;2023-07-13T00:04:21;41.92;39.07;45.96;;
69670;Laerm;66535;52.370;4.832;2023-07-13T00:04:56;42.94;39.65;46.47;;
69670;Laerm;66535;52.370;4.832;2023-07-13T00:05:27;46.83;41.99;55.19;;
69670;Laerm;66535;52.370;4.832;2023-07-13T00:06:01;47.04;42.15;55.06;;
69670;Laerm;66535;52.370;4.832;2023-07-13T00:06:32;42.53;39.67;47.11;;
69670;Laerm;66535;52.370;4.832;2023-07-13T00:07:06;41.95;38.55;46.57;;
69670;Laerm;66535;52.370;4.832;2023-07-13T00:07:38;42.51;39.89;47.06;;
69670;Laerm;66535;52.370;4.832;2023-07-13T00:08:10;45.57;40.92;54.90;;
69670;Laerm;66535;52.370;4.832;2023-07-13T00:08:42;45.39;39.67;51.70;;
69670;Laerm;66535;52.370;4.832;2023-07-13T00:09:15;42.79;39.58;46.08;;
69670;Laerm;66535;52.370;4.832;2023-07-13T00:09:47;44.98;39.43;54.37;;
69670;Laerm;66535;52.370;4.832;2023-07-13T00:10:19;45.36;42.12;50.09;;
69670;Laerm;66535;52.370;4.832;2023-07-13T00:10:51;50.75;41.78;61.04;;
69670;Laerm;66535;52.370;4.832;2023-07-13T00:11:25;43.96;39.58;48.81;;
69670;Laerm;66535;52.370;4.832;2023-07-13T00:11:57;43.35;39.79;46.95;;
69670;Laerm;66535;52.370;4.832;2023-07-13T00:12:31;42.35;39.21;46.58;;
69670;Laerm;66535;52.370;4.832;2023-07-13T00:13:02;43.49;40.99;46.22;;
69670;Laerm;66535;52.370;4.832;2023-07-13T00:13:35;43.90;41.00;47.50;;
69670;Laerm;66535;52.370;4.832;2023-07-13T00:14:09;43.31;40.57;45.90;;
69670;Laerm;66535;52.370;4.832;2023-07-13T00:14:41;43.17;39.98;47.97;;
69670;Laerm;66535;52.370;4.832;2023-07-13T00:15:14;46.81;42.69;51.97;;
69670;Laerm;66535;52.370;4.832;2023-07-13T00:15:47;45.66;43.18;48.00;;
69670;Laerm;66535;52.370;4.832;2023-07-13T00:16:19;46.24;42.68;50.32;;
69670;Laerm;66535;52.370;4.832;2023-07-13T00:16:50;47.81;43.97;54.07;;
69670;Laerm;66535;52.370;4.832;2023-07-13T00:17:23;44.23;40.88;53.80;;
69670;Laerm;66535;52.370;4.832;2023-07-13T00:17:55;43.80;41.16;46.20;;
69670;Laerm;66535;52.370;4.832;2023-07-13T00:18:26;42.77;39.03;49.92;;
69670;Laerm;66535;52.370;4.832;2023-07-13T00:19:01;45.51;38.53;58.99;;
69670;Laerm;66535;52.370;4.832;2023-07-13T00:19:33;40.87;37.80;43.47;;
69670;Laerm;66535;52.370;4.832;2023-07-13T00:20:07;43.87;40.43;46.62;;
69670;Laerm;66535;52.370;4.832;2023-07-13T00:20:39;43.65;41.00;47.07;;
69670;Laerm;66535;52.370;4.832;2023-07-13T00:21:13;42.97;39.53;47.71;;
69670;Laerm;66535;52.370;4.832;2023-07-13T00:21:46;43.27;40.67;48.04;;
69670;Laerm;66535;52.370;4.832;2023-07-13T00:22:18;42.05;39.51;45.36;;
69670;Laerm;66535;52.370;4.832;2023-07-13T00:22:49;42.61;39.99;46.87;;
69670;Laerm;66535;52.370;4.832;2023-07-13T00:23:22;46.71;43.35;50.57;;
69670;Laerm;66535;52.370;4.832;2023-07-13T00:23:55;45.67;43.48;48.58;;
69670;Laerm;66535;52.370;4.832;2023-07-13T00:24:26;44.65;41.92;47.76;;
69670;Laerm;66535;52.370;4.832;2023-07-13T00:24:58;47.42;43.76;51.12;;
69670;Laerm;66535;52.370;4.832;2023-07-13T00:25:31;49.04;44.32;64.81;;
69670;Laerm;66535;52.370;4.832;2023-07-13T00:26:03;43.84;40.44;47.48;;
69670;Laerm;66535;52.370;4.832;2023-07-13T00:26:35;43.40;40.81;46.33;;
69670;Laerm;66535;52.370;4.832;2023-07-13T00:27:07;44.93;42.54;47.29;;
69670;Laerm;66535;52.370;4.832;2023-07-13T00:27:41;43.65;41.39;46.73;;
69670;Laerm;66535;52.370;4.832;2023-07-13T00:28:13;46.59;42.89;49.57;;
69670;Laerm;66535;52.370;4.832;2023-07-13T00:28:44;46.50;43.70;48.84;;
69670;Laerm;66535;52.370;4.832;2023-07-13T00:29:16;44.92;40.36;50.40;;
69670;Laerm;66535;52.370;4.832;2023-07-13T00:29:48;44.59;40.90;49.51;;
69670;Laerm;66535;52.370;4.832;2023-07-13T00:30:19;44.56;41.90;50.90;;
69670;Laerm;66535;52.370;4.832;2023-07-13T00:30:51;44.07;42.16;50.48;;
69670;Laerm;66535;52.370;4.832;2023-07-13T00:31:23;45.07;42.37;47.63;;
69670;Laerm;66535;52.370;4.832;2023-07-13T00:31:55;50.65;43.82;59.03;;
69670;Laerm;66535;52.370;4.832;2023-07-13T00:32:26;51.22;43.88;60.01;;
69670;Laerm;66535;52.370;4.832;2023-07-13T00:32:57;44.04;40.98;48.06;;
69670;Laerm;66535;52.370;4.832;2023-07-13T00:33:32;44.07;40.28;47.16;;
69670;Laerm;66535;52.370;4.832;2023-07-13T00:34:04;45.11;42.18;47.84;;
69670;Laerm;66535;52.370;4.832;2023-07-13T00:34:35;42.24;39.23;47.75;;
69670;Laerm;66535;52.370;4.832;2023-07-13T00:35:09;42.14;39.87;45.07;;
69670;Laerm;66535;52.370;4.832;2023-07-13T00:35:40;41.98;39.18;51.27;;
69670;Laerm;66535;52.370;4.832;2023-07-13T00:36:16;45.06;41.43;47.98;;
69670;Laerm;66535;52.370;4.832;2023-07-13T00:36:47;42.83;40.23;45.23;;
69670;Laerm;66535;52.370;4.832;2023-07-13T00:37:19;44.89;41.82;48.68;;
69670;Laerm;66535;52.370;4.832;2023-07-13T00:37:51;46.19;41.56;54.14;;
69670;Laerm;66535;52.370;4.832;2023-07-13T00:38:23;45.71;40.55;52.19;;
69670;Laerm;66535;52.370;4.832;2023-07-13T00:38:54;42.96;39.65;47.54;;
69670;Laerm;66535;52.370;4.832;2023-07-13T00:39:27;45.90;40.51;53.08;;
69670;Laerm;66535;52.370;4.832;2023-07-13T00:39:58;45.46;42.24;52.00;;
69670;Laerm;66535;52.370;4.832;2023-07-13T00:40:29;45.62;42.42;50.98;;
69670;Laerm;66535;52.370;4.832;2023-07-13T00:41:01;46.60;43.93;50.61;;
69670;Laerm;66535;52.370;4.832;2023-07-13T00:41:35;45.18;42.19;47.96;;
69670;Laerm;66535;52.370;4.832;2023-07-13T00:42:07;45.12;41.28;56.52;;
69670;Laerm;66535;52.370;4.832;2023-07-13T00:42:39;46.41;43.54;51.40;;
69670;Laerm;66535;52.370;4.832;2023-07-13T00:43:13;45.53;42.24;49.64;;
69670;Laerm;66535;52.370;4.832;2023-07-13T00:43:46;45.32;42.05;49.35;;
69670;Laerm;66535;52.370;4.832;2023-07-13T00:44:19;44.69;40.62;48.96;;
69670;Laerm;66535;52.370;4.832;2023-07-13T00:45:01;45.80;42.35;49.80;;
69670;Laerm;66535;52.370;4.832;2023-07-13T00:46:42;45.31;39.91;53.90;;
69670;Laerm;66535;52.370;4.832;2023-07-13T00:47:14;51.19;40.70;57.51;;
69670;Laerm;66535;52.370;4.832;2023-07-13T00:47:46;43.17;39.20;47.29;;
69670;Laerm;66535;52.370;4.832;2023-07-13T00:48:19;41.79;39.03;47.22;;
69670;Laerm;66535;52.370;4.832;2023-07-13T00:48:52;44.83;39.91;49.68;;
69670;Laerm;66535;52.370;4.832;2023-07-13T00:49:26;46.69;41.58;59.44;;
69670;Laerm;66535;52.370;4.832;2023-07-13T00:49:58;46.01;40.26;58.75;;
69670;Laerm;66535;52.370;4.832;2023-07-13T00:50:30;45.60;42.29;52.23;;
69670;Laerm;66535;52.370;4.832;2023-07-13T00:51:01;44.08;41.37;48.36;;
69670;Laerm;66535;52.370;4.832;2023-07-13T00:51:38;42.39;39.58;45.84;;
69670;Laerm;66535;52.370;4.832;2023-07-13T00:52:10;45.11;40.43;49.54;;
69670;Laerm;66535;52.370;4.832;2023-07-13T00:52:44;50.22;39.83;63.20;;
69670;Laerm;66535;52.370;4.832;2023-07-13T00:53:16;43.53;39.60;46.80;;
69670;Laerm;66535;52.370;4.832;2023-07-13T00:53:48;43.30;40.95;47.98;;
69670;Laerm;66535;52.370;4.832;2023-07-13T00:54:26;43.30;40.32;46.22;;
69670;Laerm;66535;52.370;4.832;2023-07-13T00:55:00;44.72;41.55;48.34;;
69670;Laerm;66535;52.370;4.832;2023-07-13T00:55:32;43.57;41.13;46.06;;
69670;Laerm;66535;52.370;4.832;2023-07-13T00:56:04;42.52;40.26;45.26;;
69670;Laerm;66535;52.370;4.832;2023-07-13T00:56:35;42.80;39.99;46.09;;
69670;Laerm;66535;52.370;4.832;2023-07-13T00:57:10;42.86;39.47;46.35;;
69670;Laerm;66535;52.370;4.832;2023-07-13T00:57:44;40.69;38.22;43.36;;
69670;Laerm;66535;52.370;4.832;2023-07-13T00:58:15;40.49;38.38;43.06;;
69670;Laerm;66535;52.370;4.832;2023-07-13T00:58:47;40.14;37.89;43.41;;
69670;Laerm;66535;52.370;4.832;2023-07-13T00:59:20;38.50;36.46;43.27;;
69670;Laerm;66535;52.370;4.832;2023-07-13T00:59:55;39.17;36.82;41.66;;
69670;Laerm;66535;52.370;4.832;2023-07-13T01:00:28;42.46;39.31;45.57;;
69670;Laerm;66535;52.370;4.832;2023-07-13T01:01:00;42.93;39.59;46.13;;
69670;Laerm;66535;52.370;4.832;2023-07-13T01:01:33;42.31;39.61;46.49;;
69670;Laerm;66535;52.370;4.832;2023-07-13T01:02:04;40.05;37.37;43.77;;
69670;Laerm;66535;52.370;4.832;2023-07-13T01:02:36;39.50;37.01;42.10;;
69670;Laerm;66535;52.370;4.832;2023-07-13T01:03:08;40.63;38.48;42.82;;
69670;Laerm;66535;52.370;4.832;2023-07-13T01:03:41;41.11;38.88;43.29;;
69670;Laerm;66535;52.370;4.832;2023-07-13T01:04:12;42.42;39.61;47.50;;
69670;Laerm;66535;52.370;4.832;2023-07-13T01:04:44;40.92;38.06;43.96;;
69670;Laerm;66535;52.370;4.832;2023-07-13T01:05:17;40.77;37.45;44.97;;
69670;Laerm;66535;52.370;4.832;2023-07-13T01:05:49;42.02;39.19;47.63;;
69670;Laerm;66535;52.370;4.832;2023-07-13T01:06:22;43.29;39.67;46.17;;
69670;Laerm;66535;52.370;4.832;2023-07-13T01:06:55;43.83;41.37;47.63;;
69670;Laerm;66535;52.370;4.832;2023-07-13T01:07:27;43.95;40.84;47.66;;
69670;Laerm;66535;52.370;4.832;2023-07-13T01:07:59;42.21;39.30;46.85;;
69670;Laerm;66535;52.370;4.832;2023-07-13T01:08:32;41.31;38.66;43.76;;
69670;Laerm;66535;52.370;4.832;2023-07-13T01:09:04;41.62;37.76;46.79;;
69670;Laerm;66535;52.370;4.832;2023-07-13T01:09:36;43.49;39.33;51.46;;
69670;Laerm;66535;52.370;4.832;2023-07-13T01:10:09;42.23;39.84;45.18;;
69670;Laerm;66535;52.370;4.832;2023-07-13T01:10:42;47.68;39.18;57.17;;
69670;Laerm;66535;52.370;4.832;2023-07-13T01:11:21;39.63;37.35;47.31;;
69670;Laerm;66535;52.370;4.832;2023-07-13T01:11:53;41.08;38.74;43.28;;
69670;Laerm;66535;52.370;4.832;2023-07-13T01:12:25;44.49;39.97;49.98;;
69670;Laerm;66535;52.370;4.832;2023-07-13T01:12:57;41.41;37.91;45.32;;
69670;Laerm;66535;52.370;4.832;2023-07-13T01:13:30;40.30;37.63;42.56;;
69670;Laerm;66535;52.370;4.832;2023-07-13T01:14:02;43.06;39.06;46.94;;
69670;Laerm;66535;52.370;4.832;2023-07-13T01:14:35;41.40;37.69;46.50;;
69670;Laerm;66535;52.370;4.832;2023-07-13T01:15:34;39.59;36.98;42.92;;
69670;Laerm;66535;52.370;4.832;2023-07-13T01:16:13;43.60;39.94;47.06;;
69670;Laerm;66535;52.370;4.832;2023-07-13T01:16:47;43.12;39.02;47.98;;
69670;Laerm;66535;52.370;4.832;2023-07-13T01:17:19;43.74;39.99;47.53;;
69670;Laerm;66535;52.370;4.832;2023-07-13T01:17:50;39.63;37.31;42.56;;
69670;Laerm;66535;52.370;4.832;2023-07-13T01:18:25;41.45;37.49;51.82;;
69670;Laerm;66535;52.370;4.832;2023-07-13T01:18:57;42.07;38.58;50.82;;
69670;Laerm;66535;52.370;4.832;2023-07-13T01:19:33;44.04;41.41;48.10;;
69670;Laerm;66535;52.370;4.832;2023-07-13T01:20:08;42.66;38.69;47.65;;
69670;Laerm;66535;52.370;4.832;2023-07-13T01:20:41;40.53;38.34;46.86;;
69670;Laerm;66535;52.370;4.832;2023-07-13T01:21:14;44.22;39.30;48.90;;
69670;Laerm;66535;52.370;4.832;2023-07-13T01:21:50;41.95;38.81;46.86;;
69670;Laerm;66535;52.370;4.832;2023-07-13T01:22:21;39.27;36.91;46.44;;
69670;Laerm;66535;52.370;4.832;2023-07-13T01:22:56;40.02;38.21;42.57;;
69670;Laerm;66535;52.370;4.832;2023-07-13T01:23:28;40.85;37.87;47.15;;
69670;Laerm;66535;52.370;4.832;2023-07-13T01:24:00;39.73;37.85;42.66;;
69670;Laerm;66535;52.370;4.832;2023-07-13T01:24:33;41.82;39.03;49.32;;
69670;Laerm;66535;52.370;4.832;2023-07-13T01:25:05;41.08;39.18;44.17;;
69670;Laerm;66535;52.370;4.832;2023-07-13T01:25:37;41.55;38.54;44.82;;
69670;Laerm;66535;52.370;4.832;2023-07-13T01:26:09;40.59;38.68;46.92;;
69670;Laerm;66535;52.370;4.832;2023-07-13T01:26:41;40.62;37.99;43.83;;
69670;Laerm;66535;52.370;4.832;2023-07-13T01:27:15;40.49;38.13;42.76;;
69670;Laerm;66535;52.370;4.832;2023-07-13T01:27:46;42.12;39.02;46.94;;
69670;Laerm;66535;52.370;4.832;2023-07-13T01:28:18;42.48;39.95;44.92;;
69670;Laerm;66535;52.370;4.832;2023-07-13T01:28:50;41.42;39.12;44.41;;
69670;Laerm;66535;52.370;4.832;2023-07-13T01:29:22;45.34;40.77;49.60;;
69670;Laerm;66535;52.370;4.832;2023-07-13T01:29:53;44.47;41.58;48.81;;
69670;Laerm;66535;52.370;4.832;2023-07-13T01:30:33;43.27;39.34;47.22;;
69670;Laerm;66535;52.370;4.832;2023-07-13T01:31:04;41.76;39.12;44.15;;
69670;Laerm;66535;52.370;4.832;2023-07-13T01:31:36;42.95;39.24;45.09;;
69670;Laerm;66535;52.370;4.832;2023-07-13T01:32:08;40.14;36.99;42.81;;
69670;Laerm;66535;52.370;4.832;2023-07-13T01:32:41;39.82;37.16;42.73;;
69670;Laerm;66535;52.370;4.832;2023-07-13T01:33:13;40.93;37.62;51.24;;
69670;Laerm;66535;52.370;4.832;2023-07-13T01:33:45;41.03;36.98;48.48;;
69670;Laerm;66535;52.370;4.832;2023-07-13T01:34:16;41.12;37.95;45.13;;
69670;Laerm;66535;52.370;4.832;2023-07-13T01:34:49;39.16;36.50;42.16;;
69670;Laerm;66535;52.370;4.832;2023-07-13T01:35:21;40.27;37.14;49.63;;
69670;Laerm;66535;52.370;4.832;2023-07-13T01:35:52;47.95;38.77;67.60;;
69670;Laerm;66535;52.370;4.832;2023-07-13T01:36:25;42.22;37.61;60.78;;
69670;Laerm;66535;52.370;4.832;2023-07-13T01:36:58;53.69;37.57;75.44;;
69670;Laerm;66535;52.370;4.832;2023-07-13T01:37:29;45.62;38.00;54.83;;
69670;Laerm;66535;52.370;4.832;2023-07-13T01:38:04;41.60;38.97;46.05;;
69670;Laerm;66535;52.370;4.832;2023-07-13T01:38:36;42.71;38.69;46.11;;
69670;Laerm;66535;52.370;4.832;2023-07-13T01:39:09;39.78;37.44;45.33;;
69670;Laerm;66535;52.370;4.832;2023-07-13T01:39:40;40.71;38.56;46.08;;
69670;Laerm;66535;52.370;4.832;2023-07-13T01:40:12;40.78;37.69;46.67;;
69670;Laerm;66535;52.370;4.832;2023-07-13T01:40:43;40.96;38.52;43.03;;
69670;Laerm;66535;52.370;4.832;2023-07-13T01:41:16;41.80;39.37;44.15;;
69670;Laerm;66535;52.370;4.832;2023-07-13T01:41:48;42.06;39.75;45.37;;
69670;Laerm;66535;52.370;4.832;2023-07-13T01:42:19;40.61;38.35;46.48;;
69670;Laerm;66535;52.370;4.832;2023-07-13T01:42:52;41.10;37.98;44.40;;
69670;Laerm;66535;52.370;4.832;2023-07-13T01:43:23;40.91;38.09;45.11;;
69670;Laerm;66535;52.370;4.832;2023-07-13T01:43:54;44.95;41.32;49.28;;
69670;Laerm;66535;52.370;4.832;2023-07-13T01:44:27;49.93;41.96;64.96;;
69670;Laerm;66535;52.370;4.832;2023-07-13T01:44:58;42.14;39.85;44.86;;
69670;Laerm;66535;52.370;4.832;2023-07-13T01:45:30;42.68;40.21;44.31;;
69670;Laerm;66535;52.370;4.832;2023-07-13T01:46:01;41.35;38.76;43.84;;
69670;Laerm;66535;52.370;4.832;2023-07-13T01:46:34;41.70;39.06;45.75;;
69670;Laerm;66535;52.370;4.832;2023-07-13T01:47:05;42.76;39.11;46.77;;
69670;Laerm;66535;52.370;4.832;2023-07-13T01:47:37;43.14;40.07;46.50;;
69670;Laerm;66535;52.370;4.832;2023-07-13T01:48:08;41.74;39.30;45.09;;
69670;Laerm;66535;52.370;4.832;2023-07-13T01:48:40;44.91;40.24;64.06;;
69670;Laerm;66535;52.370;4.832;2023-07-13T01:49:12;40.45;37.94;43.66;;
69670;Laerm;66535;52.370;4.832;2023-07-13T01:49:43;42.20;39.58;47.85;;
69670;Laerm;66535;52.370;4.832;2023-07-13T01:50:17;41.65;38.29;45.90;;
69670;Laerm;66535;52.370;4.832;2023-07-13T01:50:48;40.65;38.17;43.43;;
69670;Laerm;66535;52.370;4.832;2023-07-13T01:51:21;39.86;37.85;42.60;;
69670;Laerm;66535;52.370;4.832;2023-07-13T01:51:54;41.25;37.47;44.21;;
69670;Laerm;66535;52.370;4.832;2023-07-13T01:52:25;42.21;39.64;44.85;;
69670;Laerm;66535;52.370;4.832;2023-07-13T01:52:56;41.54;39.06;46.49;;
69670;Laerm;66535;52.370;4.832;2023-07-13T01:53:28;42.92;40.14;45.93;;
69670;Laerm;66535;52.370;4.832;2023-07-13T01:54:00;41.37;38.84;44.06;;
69670;Laerm;66535;52.370;4.832;2023-07-13T01:54:32;47.78;40.00;57.19;;
69670;Laerm;66535;52.370;4.832;2023-07-13T01:55:06;41.24;38.40;45.67;;
69670;Laerm;66535;52.370;4.832;2023-07-13T01:55:38;41.73;39.79;44.43;;
69670;Laerm;66535;52.370;4.832;2023-07-13T01:56:10;41.99;38.46;47.17;;
69670;Laerm;66535;52.370;4.832;2023-07-13T01:56:42;43.49;39.50;60.01;;
69670;Laerm;66535;52.370;4.832;2023-07-13T01:57:13;41.40;38.04;43.92;;
69670;Laerm;66535;52.370;4.832;2023-07-13T01:57:44;42.23;38.09;44.82;;
69670;Laerm;66535;52.370;4.832;2023-07-13T01:58:17;44.83;41.14;52.83;;
69670;Laerm;66535;52.370;4.832;2023-07-13T01:58:49;42.56;39.19;46.83;;
69670;Laerm;66535;52.370;4.832;2023-07-13T01:59:20;42.07;40.31;44.68;;
69670;Laerm;66535;52.370;4.832;2023-07-13T01:59:52;41.13;38.59;44.33;;
69670;Laerm;66535;52.370;4.832;2023-07-13T02:00:24;39.47;36.59;49.52;;
69670;Laerm;66535;52.370;4.832;2023-07-13T02:00:56;40.86;36.49;47.06;;
69670;Laerm;66535;52.370;4.832;2023-07-13T02:01:27;41.44;37.55;47.73;;
69670;Laerm;66535;52.370;4.832;2023-07-13T02:02:00;42.61;38.95;46.01;;
69670;Laerm;66535;52.370;4.832;2023-07-13T02:02:31;42.78;39.92;46.24;;
69670;Laerm;66535;52.370;4.832;2023-07-13T02:03:03;43.07;40.20;46.62;;
69670;Laerm;66535;52.370;4.832;2023-07-13T02:03:34;43.05;40.48;47.91;;
69670;Laerm;66535;52.370;4.832;2023-07-13T02:04:07;41.76;39.09;43.86;;
69670;Laerm;66535;52.370;4.832;2023-07-13T02:04:38;45.90;39.95;55.46;;
69670;Laerm;66535;52.370;4.832;2023-07-13T02:05:10;45.17;42.26;51.65;;
69670;Laerm;66535;52.370;4.832;2023-07-13T02:05:41;44.50;41.31;47.70;;
69670;Laerm;66535;52.370;4.832;2023-07-13T02:06:13;43.17;40.15;46.79;;
69670;Laerm;66535;52.370;4.832;2023-07-13T02:06:45;41.22;38.91;43.56;;
69670;Laerm;66535;52.370;4.832;2023-07-13T02:07:17;41.98;39.40;47.06;;
69670;Laerm;66535;52.370;4.832;2023-07-13T02:07:49;43.10;39.94;45.55;;
69670;Laerm;66535;52.370;4.832;2023-07-13T02:08:22;42.79;40.48;45.45;;
69670;Laerm;66535;52.370;4.832;2023-07-13T02:08:53;42.87;40.70;45.65;;
69670;Laerm;66535;52.370;4.832;2023-07-13T02:09:24;51.08;40.29;61.10;;
69670;Laerm;66535;52.370;4.832;2023-07-13T02:09:57;44.61;41.92;48.37;;
69670;Laerm;66535;52.370;4.832;2023-07-13T02:10:28;43.76;39.52;46.41;;
69670;Laerm;66535;52.370;4.832;2023-07-13T02:11:00;40.74;37.62;45.61;;
69670;Laerm;66535;52.370;4.832;2023-07-13T02:11:34;43.04;40.19;46.97;;
69670;Laerm;66535;52.370;4.832;2023-07-13T02:12:06;44.04;40.49;46.88;;
69670;Laerm;66535;52.370;4.832;2023-07-13T02:12:38;43.96;41.61;47.41;;
69670;Laerm;66535;52.370;4.832;2023-07-13T02:13:10;44.49;41.53;50.81;;
69670;Laerm;66535;52.370;4.832;2023-07-13T02:13:42;44.13;41.79;50.64;;
69670;Laerm;66535;52.370;4.832;2023-07-13T02:14:14;42.92;39.95;47.11;;
69670;Laerm;66535;52.370;4.832;2023-07-13T02:14:46;45.31;40.78;50.18;;
69670;Laerm;66535;52.370;4.832;2023-07-13T02:15:17;46.24;43.42;49.47;;
69670;Laerm;66535;52.370;4.832;2023-07-13T02:15:50;56.28;41.23;71.93;;
69670;Laerm;66535;52.370;4.832;2023-07-13T02:16:22;43.79;39.64;47.14;;
69670;Laerm;66535;52.370;4.832;2023-07-13T02:16:53;43.19;40.56;45.39;;
69670;Laerm;66535;52.370;4.832;2023-07-13T02:17:25;42.06;39.47;54.99;;
69670;Laerm;66535;52.370;4.832;2023-07-13T02:17:57;43.20;40.70;48.18;;
69670;Laerm;66535;52.370;4.832;2023-07-13T02:18:29;43.69;40.06;48.57;;
69670;Laerm;66535;52.370;4.832;2023-07-13T02:19:00;43.39;40.81;48.47;;
69670;Laerm;66535;52.370;4.832;2023-07-13T02:19:33;43.18;40.53;48.19;;
69670;Laerm;66535;52.370;4.832;2023-07-13T02:20:05;42.16;40.23;45.11;;
69670;Laerm;66535;52.370;4.832;2023-07-13T02:20:37;44.93;41.26;48.02;;
69670;Laerm;66535;52.370;4.832;2023-07-13T02:21:09;44.70;41.92;48.83;;
69670;Laerm;66535;52.370;4.832;2023-07-13T02:21:41;42.75;40.54;47.11;;
69670;Laerm;66535;52.370;4.832;2023-07-13T02:22:12;43.83;40.45;47.37;;
69670;Laerm;66535;52.370;4.832;2023-07-13T02:22:45;43.73;40.59;48.43;;
69670;Laerm;66535;52.370;4.832;2023-07-13T02:23:17;45.20;41.59;50.98;;
69670;Laerm;66535;52.370;4.832;2023-07-13T02:23:49;43.94;41.16;48.48;;
69670;Laerm;66535;52.370;4.832;2023-07-13T02:24:21;42.11;39.19;47.50;;
69670;Laerm;66535;52.370;4.832;2023-07-13T02:24:52;43.05;39.29;50.31;;
69670;Laerm;66535;52.370;4.832;2023-07-13T02:25:25;43.33;40.61;50.27;;
69670;Laerm;66535;52.370;4.832;2023-07-13T02:25:58;43.88;40.34;50.57;;
69670;Laerm;66535;52.370;4.832;2023-07-13T02:26:29;45.56;39.76;51.28;;
69670;Laerm;66535;52.370;4.832;2023-07-13T02:27:01;46.40;42.24;52.85;;
69670;Laerm;66535;52.370;4.832;2023-07-13T02:27:33;44.43;40.62;51.80;;
69670;Laerm;66535;52.370;4.832;2023-07-13T02:28:05;42.47;38.72;49.23;;
69670;Laerm;66535;52.370;4.832;2023-07-13T02:28:36;42.41;38.40;49.57;;
69670;Laerm;66535;52.370;4.832;2023-07-13T02:29:08;44.08;41.30;51.28;;
69670;Laerm;66535;52.370;4.832;2023-07-13T02:29:40;44.01;40.58;47.44;;
69670;Laerm;66535;52.370;4.832;2023-07-13T02:30:12;43.02;38.85;51.34;;
69670;Laerm;66535;52.370;4.832;2023-07-13T02:30:43;42.96;40.12;47.27;;
69670;Laerm;66535;52.370;4.832;2023-07-13T02:31:16;43.68;40.20;52.73;;
69670;Laerm;66535;52.370;4.832;2023-07-13T02:31:47;44.58;39.54;51.58;;
69670;Laerm;66535;52.370;4.832;2023-07-13T02:32:19;46.18;40.64;52.52;;
69670;Laerm;66535;52.370;4.832;2023-07-13T02:32:50;45.25;42.10;52.38;;
69670;Laerm;66535;52.370;4.832;2023-07-13T02:33:23;46.16;42.39;50.27;;
69670;Laerm;66535;52.370;4.832;2023-07-13T02:33:54;47.00;42.54;52.18;;
69670;Laerm;66535;52.370;4.832;2023-07-13T02:34:25;44.06;40.35;53.07;;
69670;Laerm;66535;52.370;4.832;2023-07-13T02:34:57;43.63;40.38;50.35;;
69670;Laerm;66535;52.370;4.832;2023-07-13T02:35:28;46.15;41.63;54.00;;
69670;Laerm;66535;52.370;4.832;2023-07-13T02:36:01;45.11;40.60;57.31;;
69670;Laerm;66535;52.370;4.832;2023-07-13T02:36:32;45.55;41.16;55.08;;
69670;Laerm;66535;52.370;4.832;2023-07-13T02:37:04;45.84;40.59;50.34;;
69670;Laerm;66535;52.370;4.832;2023-07-13T02:37:35;44.88;41.36;50.63;;
69670;Laerm;66535;52.370;4.832;2023-07-13T02:38:08;44.80;40.63;53.27;;
69670;Laerm;66535;52.370;4.832;2023-07-13T02:38:41;45.14;40.13;59.58;;
69670;Laerm;66535;52.370;4.832;2023-07-13T02:39:13;46.22;42.71;51.48;;
69670;Laerm;66535;52.370;4.832;2023-07-13T02:39:44;44.75;40.58;50.78;;
69670;Laerm;66535;52.370;4.832;2023-07-13T02:40:16;45.68;39.75;52.15;;
69670;Laerm;66535;52.370;4.832;2023-07-13T02:40:49;47.82;45.22;50.38;;
69670;Laerm;66535;52.370;4.832;2023-07-13T02:41:20;45.80;41.99;51.15;;
69670;Laerm;66535;52.370;4.832;2023-07-13T02:41:52;45.30;41.78;52.23;;
69670;Laerm;66535;52.370;4.832;2023-07-13T02:42:23;43.42;40.28;52.09;;
69670;Laerm;66535;52.370;4.832;2023-07-13T02:42:55;46.15;41.51;59.15;;
69670;Laerm;66535;52.370;4.832;2023-07-13T02:43:27;45.17;40.57;52.45;;
69670;Laerm;66535;52.370;4.832;2023-07-13T02:43:58;43.85;39.82;53.51;;
69670;Laerm;66535;52.370;4.832;2023-07-13T02:44:34;42.23;38.40;49.42;;
69670;Laerm;66535;52.370;4.832;2023-07-13T02:45:08;43.64;38.57;56.38;;
69670;Laerm;66535;52.370;4.832;2023-07-13T02:45:43;44.05;40.76;51.77;;
69670;Laerm;66535;52.370;4.832;2023-07-13T02:46:15;44.36;41.11;50.67;;
69670;Laerm;66535;52.370;4.832;2023-07-13T02:46:46;45.30;40.96;53.81;;
69670;Laerm;66535;52.370;4.832;2023-07-13T02:47:18;43.79;40.47;51.45;;
69670;Laerm;66535;52.370;4.832;2023-07-13T02:47:50;44.43;40.51;51.95;;
69670;Laerm;66535;52.370;4.832;2023-07-13T02:48:21;43.32;39.59;48.66;;
69670;Laerm;66535;52.370;4.832;2023-07-13T02:48:53;44.71;41.13;53.50;;
69670;Laerm;66535;52.370;4.832;2023-07-13T02:49:25;45.83;41.18;49.58;;
69670;Laerm;66535;52.370;4.832;2023-07-13T02:49:57;46.05;42.82;51.02;;
69670;Laerm;66535;52.370;4.832;2023-07-13T02:50:28;44.23;41.11;48.98;;
69670;Laerm;66535;52.370;4.832;2023-07-13T02:51:01;45.87;41.64;53.69;;
69670;Laerm;66535;52.370;4.832;2023-07-13T02:51:32;45.10;41.60;53.12;;
69670;Laerm;66535;52.370;4.832;2023-07-13T02:52:05;47.45;41.72;57.58;;
69670;Laerm;66535;52.370;4.832;2023-07-13T02:52:37;46.58;42.13;51.12;;
69670;Laerm;66535;52.370;4.832;2023-07-13T02:53:11;45.80;42.77;51.47;;
69670;Laerm;66535;52.370;4.832;2023-07-13T02:53:43;46.60;43.52;52.05;;
69670;Laerm;66535;52.370;4.832;2023-07-13T02:54:14;54.85;43.64;62.01;;
69670;Laerm;66535;52.370;4.832;2023-07-13T02:54:45;46.92;43.73;53.42;;
69670;Laerm;66535;52.370;4.832;2023-07-13T02:55:18;46.69;43.01;53.82;;
69670;Laerm;66535;52.370;4.832;2023-07-13T02:55:49;46.20;42.09;54.67;;
69670;Laerm;66535;52.370;4.832;2023-07-13T02:56:23;46.46;42.72;61.37;;
69670;Laerm;66535;52.370;4.832;2023-07-13T02:56:55;47.16;42.35;60.69;;
69670;Laerm;66535;52.370;4.832;2023-07-13T02:57:28;52.54;43.03;71.18;;
69670;Laerm;66535;52.370;4.832;2023-07-13T02:57:59;53.79;42.82;70.63;;
69670;Laerm;66535;52.370;4.832;2023-07-13T02:58:30;51.75;42.44;69.15;;
69670;Laerm;66535;52.370;4.832;2023-07-13T02:59:02;46.90;42.95;54.40;;
69670;Laerm;66535;52.370;4.832;2023-07-13T02:59:34;46.05;41.66;58.58;;
69670;Laerm;66535;52.370;4.832;2023-07-13T03:00:07;45.62;41.73;55.09;;
69670;Laerm;66535;52.370;4.832;2023-07-13T03:00:39;43.77;41.13;48.24;;
69670;Laerm;66535;52.370;4.832;2023-07-13T03:01:12;45.72;42.89;50.31;;
69670;Laerm;66535;52.370;4.832;2023-07-13T03:01:49;45.34;42.37;49.77;;
69670;Laerm;66535;52.370;4.832;2023-07-13T03:02:21;45.93;42.33;50.50;;